Time;durP1;ratioP1;P1;durP2;ratioP2;P2;SDS_P1;SDS_P2;PMS_P1;PMS_P2;Temp;Humidity;BMP_temperature;BMP_pressure;BME280_temperature;BME280_humidity;BME280_pressure;Samples;Min_cycle;Max_cycle;Signal;HPM_P1;HPM_P2
2024/01/14 00:00:06;;;;;;;0.30;0.30;;;-0.90;99.90;;;;;;5093494;28;20626;-73
2024/01/14 00:02:32;;;;;;;0.30;0.30;;;-0.90;99.90;;;;;;5093576;28;20173;-73
2024/01/14 00:04:58;;;;;;;0.30;0.30;;;-0.90;99.90;;;;;;5091755;28;20263;-75
2024/01/14 00:07:23;;;;;;;0.30;0.30;;;-0.90;99.90;;;;;;5092034;28;20280;-75
2024/01/14 00:09:49;;;;;;;0.30;0.30;;;-0.90;99.90;;;;;;5093284;28;20228;-76
2024/01/14 00:12:15;;;;;;;0.30;0.30;;;-0.90;99.90;;;;;;5093383;28;20168;-76
2024/01/14 00:14:41;;;;;;;0.30;0.30;;;-0.90;99.90;;;;;;5092709;28;20250;-73
2024/01/14 00:17:07;;;;;;;0.30;0.30;;;-1.00;99.90;;;;;;5091956;28;20177;-73
2024/01/14 00:19:33;;;;;;;0.30;0.30;;;-1.00;99.90;;;;;;5091727;28;20545;-76
2024/01/14 00:21:58;;;;;;;0.30;0.30;;;-0.90;99.90;;;;;;5093298;28;20177;-76
2024/01/14 00:24:24;;;;;;;0.30;0.30;;;-0.90;99.90;;;;;;5091724;28;20205;-75
2024/01/14 00:26:50;;;;;;;0.30;0.30;;;-0.90;99.90;;;;;;5091586;28;20176;-73
2024/01/14 00:29:15;;;;;;;0.30;0.30;;;-1.00;99.90;;;;;;5091468;28;20571;-73
2024/01/14 00:31:41;;;;;;;0.30;0.30;;;-1.00;99.90;;;;;;5091728;28;20479;-73
2024/01/14 00:34:07;;;;;;;0.30;0.30;;;-0.90;99.90;;;;;;5092679;28;20196;-73
2024/01/14 00:36:40;;;;;;;0.30;0.30;;;-0.90;99.90;;;;;;5091632;28;20190;-76
2024/01/14 00:39:06;;;;;;;0.30;0.30;;;-0.90;99.90;;;;;;5093257;28;20680;-74
2024/01/14 00:41:33;;;;;;;0.30;0.30;;;-0.80;99.90;;;;;;5091571;28;20183;-73
2024/01/14 00:43:58;;;;;;;0.30;0.30;;;-0.80;99.90;;;;;;5091165;28;20781;-75
2024/01/14 00:46:24;;;;;;;0.30;0.30;;;-0.80;99.90;;;;;;5092795;28;20176;-73
2024/01/14 00:48:50;;;;;;;0.30;0.30;;;-0.80;99.90;;;;;;5090618;28;20216;-75
2024/01/14 00:51:15;;;;;;;0.30;0.30;;;-0.80;99.90;;;;;;5091023;28;20176;-73
2024/01/14 00:53:41;;;;;;;0.30;0.30;;;-0.80;99.90;;;;;;5091112;28;20204;-76
2024/01/14 00:56:07;;;;;;;0.30;0.30;;;-0.80;99.90;;;;;;5091361;28;20168;-74
2024/01/14 00:58:32;;;;;;;0.30;0.30;;;-0.80;99.90;;;;;;5092540;28;20895;-73
2024/01/14 01:00:58;;;;;;;0.30;0.30;;;-0.80;99.90;;;;;;5092311;28;20180;-76
2024/01/14 01:03:24;;;;;;;0.30;0.30;;;-0.70;99.90;;;;;;5090990;28;20569;-73
2024/01/14 01:05:49;;;;;;;0.30;0.20;;;-0.70;99.90;;;;;;5090990;28;20180;-73
2024/01/14 01:08:15;;;;;;;0.30;0.30;;;-0.70;99.90;;;;;;5090253;28;20238;-73
2024/01/14 01:10:41;;;;;;;0.30;0.30;;;-0.60;99.90;;;;;;5092450;28;20168;-73
2024/01/14 01:13:07;;;;;;;0.30;0.30;;;-0.60;99.90;;;;;;5091810;28;20195;-75
2024/01/14 01:15:33;;;;;;;0.30;0.30;;;-0.50;99.90;;;;;;5092015;28;20175;-75
2024/01/14 01:17:58;;;;;;;0.30;0.30;;;-0.50;99.90;;;;;;5091975;28;20411;-73
2024/01/14 01:20:24;;;;;;;0.30;0.30;;;-0.50;99.90;;;;;;5092064;28;20536;-74
2024/01/14 01:22:51;;;;;;;0.30;0.30;;;-0.50;99.90;;;;;;5092186;28;20452;-74
2024/01/14 01:25:16;;;;;;;0.30;0.30;;;-0.50;99.90;;;;;;5091926;28;20641;-73
2024/01/14 01:27:42;;;;;;;0.30;0.30;;;-0.50;99.90;;;;;;5090623;28;20246;-76
2024/01/14 01:30:08;;;;;;;0.30;0.30;;;-0.50;99.90;;;;;;5091609;28;20766;-76
2024/01/14 01:32:34;;;;;;;0.30;0.30;;;-0.40;99.90;;;;;;5090309;28;20411;-76
2024/01/14 01:35:00;;;;;;;0.30;0.30;;;-0.40;99.90;;;;;;5090199;28;20185;-76
2024/01/14 01:37:25;;;;;;;0.30;0.30;;;-0.50;99.90;;;;;;5090420;28;20184;-76
2024/01/14 01:39:51;;;;;;;0.30;0.30;;;-0.40;99.90;;;;;;5089797;28;20406;-74
2024/01/14 01:42:17;;;;;;;0.30;0.20;;;-0.50;99.90;;;;;;5090351;28;20185;-76
2024/01/14 01:44:42;;;;;;;0.30;0.30;;;-0.50;99.90;;;;;;5090135;28;20201;-76
2024/01/14 01:47:08;;;;;;;0.30;0.30;;;-0.50;99.90;;;;;;5090199;28;20180;-76
2024/01/14 01:49:34;;;;;;;0.30;0.30;;;-0.50;99.90;;;;;;5091401;28;20220;-76
2024/01/14 01:52:02;;;;;;;0.30;0.30;;;-0.50;99.90;;;;;;5090398;28;20242;-73
2024/01/14 01:54:29;;;;;;;0.30;0.30;;;-0.50;99.90;;;;;;5091325;28;20283;-76
2024/01/14 01:56:56;;;;;;;0.30;0.30;;;-0.50;99.90;;;;;;5089913;28;20430;-73
2024/01/14 01:59:23;;;;;;;0.30;0.30;;;-0.50;99.90;;;;;;5091245;28;20225;-73
2024/01/14 02:01:49;;;;;;;0.30;0.30;;;-0.50;99.90;;;;;;5091225;28;20182;-75
2024/01/14 02:04:16;;;;;;;0.30;0.30;;;-0.50;99.90;;;;;;5089907;28;20200;-76
2024/01/14 02:06:41;;;;;;;0.30;0.30;;;-0.40;99.90;;;;;;5089642;28;20656;-73
2024/01/14 02:09:10;;;;;;;0.30;0.30;;;-0.40;99.90;;;;;;5089611;28;20425;-73
2024/01/14 02:11:37;;;;;;;0.30;0.30;;;-0.50;99.90;;;;;;5089855;28;20223;-73
2024/01/14 02:14:03;;;;;;;0.30;0.30;;;-0.50;99.90;;;;;;5088450;28;20724;-74
2024/01/14 02:16:29;;;;;;;0.30;0.30;;;-0.50;99.90;;;;;;5089599;28;20180;-73
2024/01/14 02:18:54;;;;;;;0.30;0.30;;;-0.50;99.90;;;;;;5089242;28;20378;-75
2024/01/14 02:21:25;;;;;;;0.30;0.30;;;-0.50;99.90;;;;;;5091051;28;20176;-73
2024/01/14 02:24:19;;;;;;;0.30;0.30;;;-0.50;99.90;;;;;;5089480;28;20200;-76
2024/01/14 02:26:45;;;;;;;0.30;0.30;;;-0.60;99.90;;;;;;5089896;28;20669;-74
2024/01/14 02:29:12;;;;;;;0.30;0.30;;;-0.60;99.90;;;;;;5090609;28;20243;-73
2024/01/14 02:31:38;;;;;;;0.30;0.30;;;-0.60;99.90;;;;;;5090689;28;20435;-73
2024/01/14 02:34:06;;;;;;;0.30;0.30;;;-0.60;99.90;;;;;;5089222;28;20651;-76
2024/01/14 02:36:32;;;;;;;0.30;0.30;;;-0.60;99.90;;;;;;5088889;28;20259;-73
2024/01/14 02:38:58;;;;;;;0.30;0.20;;;-0.60;99.90;;;;;;5088605;28;20200;-76
2024/01/14 02:41:24;;;;;;;0.30;0.30;;;-0.60;99.90;;;;;;5089353;28;20263;-73
2024/01/14 02:43:50;;;;;;;0.30;0.30;;;-0.60;99.90;;;;;;5090212;28;20250;-75
2024/01/14 02:46:16;;;;;;;0.30;0.30;;;-0.60;99.90;;;;;;5090408;28;20168;-75
2024/01/14 02:48:41;;;;;;;0.30;0.30;;;-0.60;99.90;;;;;;5090184;28;20223;-76
2024/01/14 02:51:07;;;;;;;0.30;0.30;;;-0.60;99.90;;;;;;5088567;28;20409;-75
2024/01/14 02:53:33;;;;;;;0.30;0.30;;;-0.60;99.90;;;;;;5090203;28;20196;-73
2024/01/14 02:55:59;;;;;;;0.30;0.30;;;-0.50;99.90;;;;;;5089275;28;20412;-73
2024/01/14 02:58:24;;;;;;;0.30;0.30;;;-0.50;99.90;;;;;;5090575;28;20475;-76
2024/01/14 03:00:50;;;;;;;0.30;0.30;;;-0.60;99.90;;;;;;5088903;28;20184;-74
2024/01/14 03:03:16;;;;;;;0.30;0.30;;;-0.60;99.90;;;;;;5089899;28;20291;-73
2024/01/14 03:05:42;;;;;;;0.30;0.30;;;-0.60;99.90;;;;;;5088836;28;20514;-74
2024/01/14 03:08:09;;;;;;;0.30;0.20;;;-0.60;99.90;;;;;;5088174;28;20232;-75
2024/01/14 03:10:34;;;;;;;0.30;0.20;;;-0.60;99.90;;;;;;5089760;28;20815;-75
2024/01/14 03:13:00;;;;;;;0.30;0.30;;;-0.60;99.90;;;;;;5090059;28;20275;-75
2024/01/14 03:15:26;;;;;;;0.30;0.30;;;-0.70;99.90;;;;;;5088126;28;20176;-74
2024/01/14 03:17:52;;;;;;;0.30;0.30;;;-0.70;99.90;;;;;;5088440;28;20205;-73
2024/01/14 03:20:18;;;;;;;0.30;0.30;;;-0.60;99.90;;;;;;5088830;28;20242;-75
2024/01/14 03:22:44;;;;;;;0.30;0.30;;;-0.60;99.90;;;;;;5090003;28;20196;-73
2024/01/14 03:25:09;;;;;;;0.30;0.30;;;-0.70;99.90;;;;;;5087469;28;20413;-75
2024/01/14 03:27:35;;;;;;;0.30;0.30;;;-0.70;99.90;;;;;;5088620;28;20457;-76
2024/01/14 03:30:02;;;;;;;0.30;0.20;;;-0.70;99.90;;;;;;5088330;28;20616;-76
2024/01/14 03:32:27;;;;;;;0.30;0.20;;;-0.70;99.90;;;;;;5088192;28;20697;-73
2024/01/14 03:34:53;;;;;;;0.30;0.30;;;-0.70;99.90;;;;;;5088072;28;20449;-76
2024/01/14 03:37:19;;;;;;;0.30;0.30;;;-0.70;99.90;;;;;;5088569;28;20251;-75
2024/01/14 03:39:44;;;;;;;0.30;0.30;;;-0.70;99.90;;;;;;5088234;28;20497;-75
2024/01/14 03:42:10;;;;;;;0.30;0.30;;;-0.70;99.90;;;;;;5089734;28;20251;-75
2024/01/14 03:44:36;;;;;;;0.30;0.30;;;-0.70;99.90;;;;;;5088210;28;20205;-73
2024/01/14 03:47:02;;;;;;;0.30;0.30;;;-0.70;99.90;;;;;;5089751;28;20506;-75
2024/01/14 03:49:29;;;;;;;0.30;0.30;;;-0.80;99.90;;;;;;5089386;28;20250;-73
2024/01/14 03:51:55;;;;;;;0.30;0.30;;;-0.80;99.90;;;;;;5087240;28;20183;-73
2024/01/14 03:54:20;;;;;;;0.30;0.30;;;-0.80;99.90;;;;;;5087825;28;20208;-75
2024/01/14 03:56:46;;;;;;;0.30;0.30;;;-0.80;99.90;;;;;;5088067;28;20214;-73
2024/01/14 03:59:11;;;;;;;0.30;0.30;;;-0.80;99.90;;;;;;5089359;28;20203;-76
2024/01/14 04:01:37;;;;;;;0.30;0.30;;;-0.80;99.90;;;;;;5089690;28;20176;-73
2024/01/14 04:04:03;;;;;;;0.30;0.30;;;-0.90;99.90;;;;;;5087733;28;20388;-74
2024/01/14 04:06:29;;;;;;;0.30;0.30;;;-0.80;99.90;;;;;;5088028;28;20177;-73
2024/01/14 04:08:55;;;;;;;0.30;0.30;;;-0.90;99.90;;;;;;5087537;28;20534;-73
2024/01/14 04:11:20;;;;;;;0.30;0.30;;;-0.90;99.90;;;;;;5089389;28;20388;-76
2024/01/14 04:13:46;;;;;;;0.30;0.30;;;-0.90;99.90;;;;;;5087561;28;20565;-75
2024/01/14 04:16:12;;;;;;;0.30;0.30;;;-0.80;99.90;;;;;;5088924;28;20377;-74
2024/01/14 04:18:37;;;;;;;0.30;0.30;;;-0.80;99.90;;;;;;5089467;28;20184;-73
2024/01/14 04:21:03;;;;;;;0.30;0.20;;;-0.90;99.90;;;;;;5089293;28;20388;-76
2024/01/14 04:23:29;;;;;;;0.30;0.30;;;-0.90;99.90;;;;;;5089687;28;20204;-73
2024/01/14 04:25:55;;;;;;;0.30;0.30;;;-0.90;99.90;;;;;;5089392;28;20445;-73
2024/01/14 04:28:21;;;;;;;0.30;0.30;;;-0.90;99.90;;;;;;5089251;28;20247;-73
2024/01/14 04:30:47;;;;;;;0.30;0.30;;;-0.90;99.90;;;;;;5089317;28;20573;-75
2024/01/14 04:33:13;;;;;;;0.30;0.30;;;-0.90;99.90;;;;;;5087411;28;20211;-75
2024/01/14 04:35:38;;;;;;;0.30;0.30;;;-1.00;99.90;;;;;;5089054;28;20176;-75
2024/01/14 04:38:04;;;;;;;0.30;0.30;;;-1.00;99.90;;;;;;5091211;28;20415;-75
2024/01/14 04:40:30;;;;;;;0.30;0.30;;;-1.00;99.90;;;;;;5091719;28;20451;-75
2024/01/14 04:42:55;;;;;;;0.30;0.30;;;-1.10;99.90;;;;;;5093000;28;20200;-73
2024/01/14 04:45:21;;;;;;;0.30;0.30;;;-1.10;99.90;;;;;;5091301;28;20539;-75
2024/01/14 04:47:47;;;;;;;0.30;0.30;;;-1.00;99.90;;;;;;5091431;28;20862;-73
2024/01/14 04:50:13;;;;;;;0.30;0.30;;;-1.00;99.90;;;;;;5092997;28;20222;-74
2024/01/14 04:52:38;;;;;;;0.30;0.30;;;-1.00;99.90;;;;;;5091965;28;20475;-74
2024/01/14 04:55:04;;;;;;;0.30;0.30;;;-1.00;99.90;;;;;;5090986;28;20440;-74
2024/01/14 04:57:30;;;;;;;0.30;0.30;;;-1.00;99.90;;;;;;5092666;28;20517;-73
2024/01/14 04:59:56;;;;;;;0.30;0.30;;;-0.90;99.90;;;;;;5092294;28;20176;-73
2024/01/14 05:02:21;;;;;;;0.30;0.30;;;-0.90;99.90;;;;;;5092587;28;20176;-73
2024/01/14 05:04:47;;;;;;;0.30;0.30;;;-0.90;99.90;;;;;;5091032;28;20176;-75
2024/01/14 05:07:13;;;;;;;0.30;0.30;;;-0.90;99.90;;;;;;5092654;28;20177;-73
2024/01/14 05:09:38;;;;;;;0.30;0.30;;;-0.90;99.90;;;;;;5091968;28;20236;-74
2024/01/14 05:12:04;;;;;;;0.30;0.30;;;-0.90;99.90;;;;;;5090840;28;20650;-74
2024/01/14 05:14:30;;;;;;;0.30;0.30;;;-0.80;99.90;;;;;;5090441;28;20570;-76
2024/01/14 05:16:55;;;;;;;0.30;0.30;;;-0.80;99.90;;;;;;5091565;28;20183;-73
2024/01/14 05:19:22;;;;;;;0.30;0.30;;;-0.80;99.90;;;;;;5092092;28;20599;-75
2024/01/14 05:21:50;;;;;;;0.30;0.30;;;-0.80;99.90;;;;;;5092142;28;20202;-75
2024/01/14 05:24:16;;;;;;;0.30;0.30;;;-0.80;99.90;;;;;;5090502;28;20442;-74
2024/01/14 05:26:42;;;;;;;0.30;0.30;;;-0.80;99.90;;;;;;5090775;28;20637;-74
2024/01/14 05:29:07;;;;;;;0.30;0.30;;;-0.80;99.90;;;;;;5091695;28;20212;-75
2024/01/14 05:31:33;;;;;;;0.30;0.30;;;-0.70;99.90;;;;;;5090630;28;20184;-74
2024/01/14 05:33:59;;;;;;;0.30;0.30;;;-0.70;99.90;;;;;;5090097;28;20196;-74
2024/01/14 05:36:25;;;;;;;0.30;0.30;;;-0.70;99.90;;;;;;5090514;28;20246;-77
2024/01/14 05:38:50;;;;;;;0.30;0.30;;;-0.70;99.90;;;;;;5090197;28;20196;-76
2024/01/14 05:41:16;;;;;;;0.30;0.30;;;-0.70;99.90;;;;;;5090667;28;20176;-74
2024/01/14 05:43:42;;;;;;;0.30;0.30;;;-0.70;99.90;;;;;;5091451;28;20203;-75
2024/01/14 05:46:07;;;;;;;0.30;0.30;;;-0.70;99.90;;;;;;5090534;28;20176;-74
2024/01/14 05:48:33;;;;;;;0.30;0.30;;;-0.70;99.90;;;;;;5089129;28;20225;-75
2024/01/14 05:50:59;;;;;;;0.30;0.30;;;-0.70;99.90;;;;;;5089725;28;20193;-77
2024/01/14 05:53:24;;;;;;;0.30;0.30;;;-0.70;99.90;;;;;;5087891;28;20855;-74
2024/01/14 05:55:50;;;;;;;0.30;0.30;;;-0.70;99.90;;;;;;5087890;28;20203;-74
2024/01/14 05:58:15;;;;;;;0.30;0.30;;;-0.60;99.90;;;;;;5089188;28;20729;-74
2024/01/14 06:00:41;;;;;;;0.30;0.30;;;-0.60;99.90;;;;;;5089665;28;20184;-75
2024/01/14 06:03:07;;;;;;;0.30;0.30;;;-0.60;99.90;;;;;;5088058;28;20679;-76
2024/01/14 06:05:33;;;;;;;0.30;0.30;;;-0.60;99.90;;;;;;5090842;28;20180;-77
2024/01/14 06:07:58;;;;;;;0.30;0.30;;;-0.60;99.90;;;;;;5088523;28;20295;-76
2024/01/14 06:10:25;;;;;;;0.30;0.30;;;-0.50;99.90;;;;;;5090906;28;20776;-77
2024/01/14 06:12:51;;;;;;;0.30;0.30;;;-0.50;99.90;;;;;;5087914;28;20626;-74
2024/01/14 06:15:17;;;;;;;0.30;0.30;;;-0.50;99.90;;;;;;5090655;28;20187;-76
2024/01/14 06:17:43;;;;;;;0.30;0.30;;;-0.50;99.90;;;;;;5088490;28;20681;-76
2024/01/14 06:20:09;;;;;;;0.30;0.30;;;-0.50;99.90;;;;;;5089641;28;20214;-77
2024/01/14 06:22:35;;;;;;;0.30;0.30;;;-0.50;99.90;;;;;;5089886;28;20208;-75
2024/01/14 06:25:00;;;;;;;0.30;0.30;;;-0.50;99.90;;;;;;5090257;28;20208;-76
2024/01/14 06:27:26;;;;;;;0.30;0.30;;;-0.50;99.90;;;;;;5088816;28;20180;-74
2024/01/14 06:29:52;;;;;;;0.30;0.30;;;-0.50;99.90;;;;;;5090350;28;20212;-76
2024/01/14 06:32:18;;;;;;;0.30;0.30;;;-0.50;99.90;;;;;;5090094;28;20451;-74
2024/01/14 06:34:44;;;;;;;0.30;0.30;;;-0.50;99.90;;;;;;5088599;28;20449;-76
2024/01/14 06:37:10;;;;;;;0.30;0.30;;;-0.40;99.90;;;;;;5087341;28;20188;-74
2024/01/14 06:39:35;;;;;;;0.30;0.30;;;-0.40;99.90;;;;;;5084427;28;20205;-77
2024/01/14 06:42:01;;;;;;;0.30;0.30;;;-0.40;99.90;;;;;;5089838;28;21099;-77
2024/01/14 06:44:27;;;;;;;0.30;0.30;;;-0.40;99.90;;;;;;5088870;28;20279;-76
2024/01/14 06:46:52;;;;;;;0.30;0.30;;;-0.40;99.90;;;;;;5088295;28;20241;-77
2024/01/14 06:49:18;;;;;;;0.30;0.30;;;-0.40;99.90;;;;;;5086996;28;20247;-77
2024/01/14 06:51:44;;;;;;;0.30;0.30;;;-0.30;99.90;;;;;;5088845;28;20261;-75
2024/01/14 06:54:11;;;;;;;0.30;0.30;;;-0.30;99.90;;;;;;5088366;28;20201;-76
2024/01/14 06:56:43;;;;;;;0.30;0.30;;;-0.30;99.90;;;;;;5088756;28;20187;-77
2024/01/14 06:59:18;;;;;;;0.30;0.30;;;-0.30;99.90;;;;;;5087397;28;20207;-76
2024/01/14 07:01:45;;;;;;;0.30;0.30;;;-0.20;99.90;;;;;;5088348;28;20171;-74
2024/01/14 07:04:11;;;;;;;0.30;0.30;;;-0.20;99.90;;;;;;5087176;28;20193;-76
2024/01/14 07:06:37;;;;;;;0.30;0.30;;;-0.20;99.90;;;;;;5087589;28;20434;-74
2024/01/14 07:09:04;;;;;;;0.30;0.20;;;-0.20;99.90;;;;;;5087972;28;20220;-77
2024/01/14 07:11:30;;;;;;;0.30;0.30;;;-0.20;99.90;;;;;;5088997;28;20164;-74
2024/01/14 07:13:56;;;;;;;0.30;0.20;;;-0.10;99.90;;;;;;5087083;28;20227;-75
2024/01/14 07:16:22;;;;;;;0.30;0.20;;;-0.10;99.90;;;;;;5088599;28;20703;-74
2024/01/14 07:18:48;;;;;;;0.30;0.20;;;-0.10;99.90;;;;;;5087782;28;20431;-75
2024/01/14 07:21:14;;;;;;;0.30;0.30;;;-0.10;99.90;;;;;;5088816;28;20878;-77
2024/01/14 07:23:40;;;;;;;0.30;0.30;;;-0.10;99.90;;;;;;5089904;28;20227;-74
2024/01/14 07:26:17;;;;;;;0.30;0.30;;;-0.10;99.90;;;;;;5090328;28;20192;-75
2024/01/14 07:28:43;;;;;;;0.30;0.30;;;0.00;99.90;;;;;;5089559;28;20220;-75
2024/01/14 07:31:10;;;;;;;0.30;0.30;;;0.00;99.90;;;;;;5089769;28;20629;-75
2024/01/14 07:33:36;;;;;;;0.30;0.30;;;0.00;99.90;;;;;;5089947;28;20220;-77
2024/01/14 07:36:02;;;;;;;0.30;0.30;;;0.00;99.90;;;;;;5089723;28;20226;-76
2024/01/14 07:38:28;;;;;;;0.30;0.30;;;0.10;99.90;;;;;;5088185;28;20196;-75
2024/01/14 07:40:53;;;;;;;0.30;0.30;;;0.10;99.90;;;;;;5089794;28;20383;-77
2024/01/14 07:43:19;;;;;;;0.30;0.30;;;0.10;99.90;;;;;;5088467;28;20464;-75
2024/01/14 07:45:45;;;;;;;0.30;0.30;;;0.10;99.90;;;;;;5088859;28;20192;-75
2024/01/14 07:48:10;;;;;;;0.30;0.30;;;0.20;99.90;;;;;;5088383;28;20265;-74
2024/01/14 07:50:36;;;;;;;0.30;0.30;;;0.20;99.90;;;;;;5090225;28;20807;-77
2024/01/14 07:53:01;;;;;;;0.30;0.30;;;0.20;99.90;;;;;;5089815;28;20707;-77
2024/01/14 07:55:27;;;;;;;0.30;0.30;;;0.20;99.90;;;;;;5089599;28;20712;-76
2024/01/14 07:57:53;;;;;;;0.30;0.30;;;0.30;99.90;;;;;;5087358;28;20261;-75
2024/01/14 08:00:18;;;;;;;0.30;0.30;;;0.40;99.90;;;;;;5089115;28;20206;-77
2024/01/14 08:02:44;;;;;;;0.30;0.30;;;0.40;99.90;;;;;;5089747;28;20271;-74
2024/01/14 08:05:11;;;;;;;0.30;0.30;;;0.40;99.90;;;;;;5089177;28;20391;-74
2024/01/14 08:07:36;;;;;;;0.30;0.30;;;0.50;99.90;;;;;;5088292;28;20648;-74
2024/01/14 08:10:02;;;;;;;0.30;0.30;;;0.50;99.90;;;;;;5089255;28;20271;-75
2024/01/14 08:12:28;;;;;;;0.30;0.30;;;0.60;99.90;;;;;;5093303;28;20176;-77
2024/01/14 08:14:54;;;;;;;0.30;0.30;;;0.60;99.90;;;;;;5091662;28;20552;-75
2024/01/14 08:17:20;;;;;;;0.30;0.30;;;0.60;99.90;;;;;;5091722;28;20420;-76
2024/01/14 08:19:46;;;;;;;0.30;0.30;;;0.70;99.90;;;;;;5092832;28;20291;-75
2024/01/14 08:22:15;;;;;;;0.30;0.30;;;0.80;99.90;;;;;;5093418;28;20168;-77
2024/01/14 08:24:41;;;;;;;0.30;0.30;;;0.90;99.90;;;;;;5091761;28;20193;-76
2024/01/14 08:27:08;;;;;;;0.30;0.30;;;1.10;99.90;;;;;;5093346;28;20175;-75
2024/01/14 08:29:33;;;;;;;0.30;0.30;;;1.60;99.90;;;;;;5092908;28;20443;-75
2024/01/14 08:31:59;;;;;;;0.30;0.30;;;2.30;99.90;;;;;;5091658;28;20187;-76
2024/01/14 08:34:26;;;;;;;0.30;0.30;;;2.70;99.90;;;;;;5091716;28;20631;-77
2024/01/14 08:36:51;;;;;;;0.30;0.30;;;2.90;99.90;;;;;;5093162;28;20441;-75
2024/01/14 08:39:17;;;;;;;0.30;0.30;;;3.00;99.90;;;;;;5091472;28;20302;-77
2024/01/14 08:41:43;;;;;;;0.30;0.30;;;3.30;99.90;;;;;;5091663;28;20181;-75
2024/01/14 08:44:10;;;;;;;0.30;0.30;;;4.20;99.90;;;;;;5091200;28;20197;-77
2024/01/14 08:46:40;;;;;;;1.35;1.25;;;5.20;99.90;;;;;;5092789;28;20601;-75
2024/01/14 08:49:07;;;;;;;0.30;0.30;;;6.10;99.90;;;;;;5091481;28;20311;-75
2024/01/14 08:51:32;;;;;;;0.38;0.30;;;6.60;99.90;;;;;;5093088;28;20168;-75
2024/01/14 08:54:00;;;;;;;0.40;0.30;;;6.90;99.90;;;;;;5091199;28;20266;-76
2024/01/14 08:56:28;;;;;;;0.30;0.30;;;7.30;99.90;;;;;;5091604;28;20241;-75
2024/01/14 08:58:55;;;;;;;0.30;0.30;;;7.70;99.90;;;;;;5090871;28;20200;-77
2024/01/14 09:01:21;;;;;;;0.30;0.30;;;8.00;99.90;;;;;;5092119;28;20169;-75
2024/01/14 09:03:46;;;;;;;0.67;0.67;;;8.00;99.90;;;;;;5090451;28;20219;-75
2024/01/14 09:06:12;;;;;;;0.30;0.23;;;8.10;99.90;;;;;;5092606;28;20405;-75
2024/01/14 09:08:38;;;;;;;0.30;0.20;;;8.00;99.90;;;;;;5092108;28;20232;-77
2024/01/14 09:11:04;;;;;;;0.40;0.40;;;7.70;99.90;;;;;;5092454;28;20397;-78
2024/01/14 09:13:29;;;;;;;0.30;0.20;;;7.30;99.90;;;;;;5092453;28;20241;-74
2024/01/14 09:15:55;;;;;;;0.30;0.20;;;6.90;99.90;;;;;;5092128;28;20658;-77
2024/01/14 09:18:21;;;;;;;0.30;0.30;;;6.70;99.90;;;;;;5091747;28;20291;-77
2024/01/14 09:20:46;;;;;;;0.30;0.20;;;6.40;99.90;;;;;;5091164;28;20265;-77
2024/01/14 09:23:12;;;;;;;0.40;0.30;;;6.20;99.90;;;;;;5090651;28;20428;-75
2024/01/14 09:25:37;;;;;;;0.30;0.30;;;6.20;99.90;;;;;;5090773;28;20177;-75
2024/01/14 09:28:04;;;;;;;0.30;0.30;;;6.30;99.90;;;;;;5090548;28;20744;-77
2024/01/14 09:30:29;;;;;;;0.88;0.85;;;6.40;99.90;;;;;;5090524;28;20223;-77
2024/01/14 09:32:55;;;;;;;2.87;2.77;;;6.50;99.90;;;;;;5090456;28;20223;-76
2024/01/14 09:35:20;;;;;;;0.40;0.30;;;6.60;99.90;;;;;;5091573;28;20184;-75
2024/01/14 09:37:46;;;;;;;0.30;0.30;;;6.60;99.90;;;;;;5090556;28;20196;-77
2024/01/14 09:40:14;;;;;;;0.30;0.30;;;7.10;99.90;;;;;;5090697;28;20211;-76
2024/01/14 09:42:44;;;;;;;0.30;0.20;;;7.80;99.90;;;;;;5091980;28;20387;-75
2024/01/14 09:45:10;;;;;;;0.47;0.40;;;8.40;99.90;;;;;;5091510;28;20234;-77
2024/01/14 09:47:36;;;;;;;0.30;0.30;;;8.70;99.90;;;;;;5092025;28;20430;-75
2024/01/14 09:50:02;;;;;;;0.87;0.87;;;8.60;99.90;;;;;;5091506;28;20486;-77
2024/01/14 09:52:33;;;;;;;0.30;0.30;;;8.70;99.90;;;;;;5091685;28;20395;-77
2024/01/14 09:54:59;;;;;;;0.77;0.75;;;9.10;99.90;;;;;;5091709;28;20268;-77
2024/01/14 09:57:25;;;;;;;0.30;0.20;;;9.90;99.90;;;;;;5090067;28;20637;-78
2024/01/14 09:59:51;;;;;;;0.40;0.33;;;10.60;99.90;;;;;;5089818;28;20423;-76
2024/01/14 10:02:19;;;;;;;0.73;0.73;;;10.90;99.90;;;;;;5091023;28;20417;-75
2024/01/14 10:04:45;;;;;;;0.40;0.30;;;11.10;99.10;;;;;;5089322;28;20201;-77
2024/01/14 10:07:12;;;;;;;1.73;1.70;;;11.20;98.50;;;;;;5091163;28;20179;-77
2024/01/14 10:09:42;;;;;;;0.30;0.20;;;11.20;98.20;;;;;;5090803;28;20232;-77
2024/01/14 10:12:09;;;;;;;0.30;0.20;;;11.00;97.50;;;;;;5089621;28;20668;-75
2024/01/14 10:14:35;;;;;;;0.30;0.20;;;10.60;97.40;;;;;;5091075;28;20196;-77
2024/01/14 10:17:01;;;;;;;0.30;0.20;;;10.00;97.90;;;;;;5090777;28;20250;-77
2024/01/14 10:19:27;;;;;;;0.30;0.20;;;9.60;98.40;;;;;;5090301;28;20253;-75
2024/01/14 10:21:54;;;;;;;0.30;0.20;;;9.10;98.50;;;;;;5091350;28;20420;-77
2024/01/14 10:24:23;;;;;;;0.30;0.30;;;8.70;99.50;;;;;;5089528;28;20729;-77
2024/01/14 10:26:56;;;;;;;0.30;0.20;;;8.40;99.70;;;;;;5089328;28;20173;-77
2024/01/14 10:29:22;;;;;;;0.30;0.30;;;8.10;99.90;;;;;;5090730;28;20469;-75
2024/01/14 10:31:48;;;;;;;0.30;0.20;;;7.80;99.90;;;;;;5089452;28;20253;-75
2024/01/14 10:34:17;;;;;;;0.55;0.55;;;7.60;99.90;;;;;;5088440;28;20203;-75
2024/01/14 10:36:42;;;;;;;0.30;0.30;;;7.60;99.90;;;;;;5090591;28;20202;-77
2024/01/14 10:39:10;;;;;;;2.63;2.53;;;7.50;99.90;;;;;;5089091;28;20326;-75
2024/01/14 10:41:36;;;;;;;0.30;0.30;;;7.50;99.90;;;;;;5089154;28;20266;-77
2024/01/14 10:44:02;;;;;;;0.30;0.20;;;7.50;99.90;;;;;;5090154;28;20220;-75
2024/01/14 10:46:30;;;;;;;0.30;0.20;;;7.60;99.90;;;;;;5090625;28;20401;-77
2024/01/14 10:49:08;;;;;;;0.30;0.20;;;7.60;99.90;;;;;;5089997;28;20877;-77
2024/01/14 10:51:42;;;;;;;0.30;0.30;;;7.60;99.90;;;;;;5090584;28;20180;-77
2024/01/14 10:54:31;;;;;;;0.30;0.30;;;7.50;99.90;;;;;;5088853;28;20291;-77
2024/01/14 10:57:35;;;;;;;0.30;0.20;;;7.40;99.90;;;;;;5090244;28;20187;-75
2024/01/14 11:00:09;;;;;;;0.30;0.20;;;7.30;99.90;;;;;;5090090;28;20184;-76
2024/01/14 11:02:40;;;;;;;0.30;0.20;;;7.20;99.90;;;;;;5087895;28;20176;-75
2024/01/14 11:05:07;;;;;;;0.30;0.30;;;7.20;99.90;;;;;;5088538;28;20362;-75
2024/01/14 11:07:33;;;;;;;0.30;0.20;;;7.20;99.90;;;;;;5089002;28;20184;-77
2024/01/14 11:10:02;;;;;;;0.30;0.20;;;7.10;99.90;;;;;;5088384;28;20701;-76
2024/01/14 11:12:47;;;;;;;0.30;0.20;;;7.00;99.90;;;;;;5090014;28;20226;-75
2024/01/14 11:15:27;;;;;;;0.30;0.30;;;7.00;99.90;;;;;;5089627;28;20500;-77
2024/01/14 11:18:16;;;;;;;0.30;0.20;;;7.00;99.90;;;;;;5089872;28;20192;-77
2024/01/14 11:20:44;;;;;;;0.30;0.20;;;7.00;99.90;;;;;;5088504;28;20188;-75
2024/01/14 11:23:10;;;;;;;0.30;0.20;;;6.90;99.90;;;;;;5090202;28;20558;-75
2024/01/14 11:25:36;;;;;;;0.30;0.20;;;6.90;99.90;;;;;;5090001;28;20187;-76
2024/01/14 11:28:04;;;;;;;0.30;0.30;;;6.90;99.90;;;;;;5088283;28;20609;-77
2024/01/14 11:30:57;;;;;;;0.30;0.20;;;6.90;99.90;;;;;;5089731;28;20549;-77
2024/01/14 11:33:40;;;;;;;0.30;0.20;;;6.90;99.90;;;;;;5089651;28;20658;-75
2024/01/14 11:36:09;;;;;;;0.30;0.20;;;6.90;99.90;;;;;;5089800;28;20302;-77
2024/01/14 11:38:44;;;;;;;0.30;0.20;;;6.90;99.90;;;;;;5089528;28;20200;-77
2024/01/14 11:41:30;;;;;;;0.30;0.20;;;7.00;99.90;;;;;;5088547;28;20348;-75
2024/01/14 11:44:03;;;;;;;0.30;0.20;;;7.00;99.90;;;;;;5089257;28;20680;-75
2024/01/14 11:46:48;;;;;;;0.55;0.55;;;7.10;99.90;;;;;;5087539;28;20180;-77
2024/01/14 11:49:22;;;;;;;0.30;0.20;;;7.20;99.90;;;;;;5088231;28;20216;-75
2024/01/14 11:51:54;;;;;;;0.30;0.20;;;7.20;99.90;;;;;;5089827;28;20173;-77
2024/01/14 11:54:22;;;;;;;0.30;0.30;;;7.20;99.90;;;;;;5089341;28;20200;-75
2024/01/14 11:56:48;;;;;;;0.30;0.20;;;7.30;99.90;;;;;;5087985;28;20207;-75
2024/01/14 11:59:13;;;;;;;0.30;0.20;;;7.30;99.90;;;;;;5089427;28;20604;-76
2024/01/14 12:01:39;;;;;;;0.30;0.20;;;7.40;99.90;;;;;;5087662;28;20259;-75
2024/01/14 12:04:09;;;;;;;0.30;0.30;;;7.50;99.90;;;;;;5087185;28;20265;-77
2024/01/14 12:06:39;;;;;;;0.30;0.20;;;7.60;99.90;;;;;;5088140;28;20422;-75
2024/01/14 12:09:06;;;;;;;0.30;0.20;;;7.60;99.90;;;;;;5087477;28;20327;-77
2024/01/14 12:11:33;;;;;;;1.40;1.40;;;7.70;99.90;;;;;;5089512;28;20173;-75
2024/01/14 12:13:59;;;;;;;0.30;0.20;;;7.70;99.90;;;;;;5089243;28;20196;-77
2024/01/14 12:16:24;;;;;;;0.30;0.20;;;7.60;99.90;;;;;;5089473;28;20172;-78
2024/01/14 12:18:50;;;;;;;0.30;0.20;;;7.60;99.90;;;;;;5087449;28;20313;-75
2024/01/14 12:21:19;;;;;;;0.30;0.20;;;7.30;99.90;;;;;;5087621;28;20188;-75
2024/01/14 12:23:45;;;;;;;0.88;0.85;;;7.20;99.90;;;;;;5087549;28;20946;-77
2024/01/14 12:26:12;;;;;;;0.30;0.20;;;7.10;99.90;;;;;;5087854;28;20183;-77
2024/01/14 12:28:38;;;;;;;0.30;0.20;;;7.10;99.90;;;;;;5087621;28;20212;-77
2024/01/14 12:31:07;;;;;;;0.30;0.20;;;6.90;99.90;;;;;;5087916;28;20275;-76
2024/01/14 12:33:35;;;;;;;0.30;0.30;;;6.80;99.90;;;;;;5088906;28;20689;-78
2024/01/14 12:36:02;;;;;;;0.30;0.20;;;6.60;99.90;;;;;;5089220;28;20259;-78
2024/01/14 12:38:27;;;;;;;0.30;0.20;;;6.50;99.90;;;;;;5087486;28;20589;-75
2024/01/14 12:40:54;;;;;;;0.30;0.20;;;6.50;99.90;;;;;;5087906;28;20185;-76
2024/01/14 12:43:20;;;;;;;0.30;0.20;;;6.60;99.90;;;;;;5089227;28;20680;-76
2024/01/14 12:45:47;;;;;;;0.30;0.20;;;6.60;99.90;;;;;;5088013;28;20180;-75
2024/01/14 12:48:18;;;;;;;0.30;0.20;;;6.60;99.90;;;;;;5089058;28;20197;-77